Pagrindinis puslapis
METAR-TAF:

METAR-TAF

Oro uostai :

Burgasas, Bulgarija

platuma: 42-29N, ilguma: 027-29E, Aukštis: 16 m

Dabartinis oras

Ataskaita buvo paskelbta 14 minutes, ne 06:30 UTC
Vėjas 9 kt iš Vakarų
Temperatūra 9°C
Drėgmė 71%
Slėgis 1006 hPa
Matomumas 10 km arba daugiau
nėra debesų žemiau 1500 m ir nėra kamuolinių lietaus debesų

METAR: LBBG 260630Z 26009KT CAVOK 09/04 Q1006 NOSIG

Laikas: 08:44 (06:44 UTC)

Prognozė

Ataskaita buvo paskelbta 1 valandą ir 44 minutes, ne 05:00 UTC
Prognozė galioja nuo 26 metu 06 UTC su 27 metu 06 UTC
Vėjas 12 kt iš Vakarų
Matomumas 10 km arba daugiau
nėra debesų žemiau 1500 m ir nėra kamuolinių lietaus debesų
Tapsmas
nuo 26 metu 09 UTC su 26 metu 11 UTC
Vėjas 22 kt iš Pietvakarių

TAF: LBBG 260500Z 2606/2706 27012KT CAVOK BECMG 2609/2611 22022KT

Orai ataskaitas ir orų prognozės (METAR, TAF).

turimą stotys yra geltonos ir raudonos taškus žemėlapyje.

Perkelti pele per norėdami pamatyti stoties vardą.

Tada spustelėkite, norėdami matyti oro stebėjimo ir prognozės.

Norėdami pakeisti žemėlapį: spustelėkite ant žalios mygtukų su juodo kryžiaus žemyn,; žalią mygtuką su brūkšneliu, jei norite nutolinti; arba žalių rodyklių gretimoms žemėlapius.


METAR-TAF: